sensor_id;sensor_type;location;lat;lon;timestamp;pressure;altitude;pressure_sealevel;temperature;humidity
14273;BME280;7220;49.450;11.052;2023-04-24T00:01:41;97100.22;;;13.03;100.00
14273;BME280;7220;49.450;11.052;2023-04-24T00:05:42;97103.88;;;12.90;100.00
14273;BME280;7220;49.450;11.052;2023-04-24T00:09:43;97121.69;;;13.01;100.00
14273;BME280;7220;49.450;11.052;2023-04-24T00:13:43;97104.13;;;12.99;100.00
14273;BME280;7220;49.450;11.052;2023-04-24T00:17:43;97123.09;;;13.17;100.00
14273;BME280;7220;49.450;11.052;2023-04-24T00:21:44;97117.53;;;13.20;100.00
14273;BME280;7220;49.450;11.052;2023-04-24T00:25:44;97118.28;;;12.99;100.00
14273;BME280;7220;49.450;11.052;2023-04-24T00:29:45;97125.59;;;12.74;100.00
14273;BME280;7220;49.450;11.052;2023-04-24T00:33:45;97115.25;;;13.04;100.00
14273;BME280;7220;49.450;11.052;2023-04-24T00:37:45;97104.97;;;12.88;100.00
14273;BME280;7220;49.450;11.052;2023-04-24T00:41:46;97106.69;;;12.77;100.00
14273;BME280;7220;49.450;11.052;2023-04-24T00:45:47;97103.56;;;12.72;100.00
14273;BME280;7220;49.450;11.052;2023-04-24T00:49:47;97090.31;;;12.93;100.00
14273;BME280;7220;49.450;11.052;2023-04-24T00:53:48;97091.16;;;12.94;100.00
14273;BME280;7220;49.450;11.052;2023-04-24T00:57:48;97098.28;;;13.05;100.00
14273;BME280;7220;49.450;11.052;2023-04-24T01:01:48;97105.31;;;13.06;100.00
14273;BME280;7220;49.450;11.052;2023-04-24T01:05:49;97099.59;;;12.99;100.00
14273;BME280;7220;49.450;11.052;2023-04-24T01:09:50;97098.19;;;12.95;100.00
14273;BME280;7220;49.450;11.052;2023-04-24T01:13:52;97107.25;;;13.04;100.00
14273;BME280;7220;49.450;11.052;2023-04-24T01:17:52;97097.97;;;13.19;100.00
14273;BME280;7220;49.450;11.052;2023-04-24T01:21:53;97105.94;;;13.42;100.00
14273;BME280;7220;49.450;11.052;2023-04-24T01:25:54;97100.22;;;13.03;100.00
14273;BME280;7220;49.450;11.052;2023-04-24T01:29:54;97098.13;;;13.06;100.00
14273;BME280;7220;49.450;11.052;2023-04-24T01:33:56;97097.31;;;12.94;100.00
14273;BME280;7220;49.450;11.052;2023-04-24T01:37:56;97103.69;;;13.15;100.00
14273;BME280;7220;49.450;11.052;2023-04-24T01:41:57;97113.69;;;13.01;100.00
14273;BME280;7220;49.450;11.052;2023-04-24T01:45:57;97111.97;;;13.12;100.00
14273;BME280;7220;49.450;11.052;2023-04-24T01:49:58;97104.91;;;13.22;100.00
14273;BME280;7220;49.450;11.052;2023-04-24T01:53:58;97100.25;;;13.35;100.00
14273;BME280;7220;49.450;11.052;2023-04-24T01:57:59;97106.69;;;13.65;100.00
14273;BME280;7220;49.450;11.052;2023-04-24T02:02:00;97093.59;;;13.41;100.00
14273;BME280;7220;49.450;11.052;2023-04-24T02:06:00;97087.88;;;13.46;100.00
14273;BME280;7220;49.450;11.052;2023-04-24T02:10:00;97075.88;;;13.40;100.00
14273;BME280;7220;49.450;11.052;2023-04-24T02:14:01;97076.84;;;13.39;100.00
14273;BME280;7220;49.450;11.052;2023-04-24T02:18:01;97070.31;;;13.64;100.00
14273;BME280;7220;49.450;11.052;2023-04-24T02:22:01;97057.63;;;13.56;100.00
14273;BME280;7220;49.450;11.052;2023-04-24T02:26:02;97064.38;;;13.61;100.00
14273;BME280;7220;49.450;11.052;2023-04-24T02:30:02;97065.94;;;13.31;100.00
14273;BME280;7220;49.450;11.052;2023-04-24T02:34:03;97067.06;;;13.28;100.00
14273;BME280;7220;49.450;11.052;2023-04-24T02:38:03;97060.25;;;13.24;100.00
14273;BME280;7220;49.450;11.052;2023-04-24T02:42:04;97071.53;;;13.28;100.00
14273;BME280;7220;49.450;11.052;2023-04-24T02:46:05;97079.25;;;13.42;100.00
14273;BME280;7220;49.450;11.052;2023-04-24T02:50:06;97064.16;;;13.20;100.00
14273;BME280;7220;49.450;11.052;2023-04-24T02:54:10;97066.19;;;13.28;100.00
14273;BME280;7220;49.450;11.052;2023-04-24T02:58:11;97057.88;;;13.21;100.00
14273;BME280;7220;49.450;11.052;2023-04-24T03:02:12;97065.06;;;12.98;100.00
14273;BME280;7220;49.450;11.052;2023-04-24T03:06:13;97068.63;;;13.19;100.00
14273;BME280;7220;49.450;11.052;2023-04-24T03:10:13;97064.69;;;13.02;100.00
14273;BME280;7220;49.450;11.052;2023-04-24T03:14:13;97049.78;;;13.32;100.00
14273;BME280;7220;49.450;11.052;2023-04-24T03:18:14;97058.91;;;13.41;100.00
14273;BME280;7220;49.450;11.052;2023-04-24T03:22:14;97051.25;;;13.36;100.00
14273;BME280;7220;49.450;11.052;2023-04-24T03:26:15;97054.69;;;13.27;100.00
14273;BME280;7220;49.450;11.052;2023-04-24T03:30:15;97059.88;;;13.40;99.90
14273;BME280;7220;49.450;11.052;2023-04-24T03:34:15;97052.41;;;13.11;100.00
14273;BME280;7220;49.450;11.052;2023-04-24T03:38:16;97055.53;;;12.84;100.00
14273;BME280;7220;49.450;11.052;2023-04-24T03:42:16;97048.84;;;13.01;100.00
14273;BME280;7220;49.450;11.052;2023-04-24T03:46:16;97056.09;;;12.99;100.00
14273;BME280;7220;49.450;11.052;2023-04-24T03:50:16;97047.81;;;12.81;100.00
14273;BME280;7220;49.450;11.052;2023-04-24T03:54:17;97066.09;;;12.85;100.00
14273;BME280;7220;49.450;11.052;2023-04-24T03:58:17;97066.31;;;12.82;100.00
14273;BME280;7220;49.450;11.052;2023-04-24T04:02:17;97080.41;;;12.73;100.00
14273;BME280;7220;49.450;11.052;2023-04-24T04:06:18;97075.19;;;12.71;100.00
14273;BME280;7220;49.450;11.052;2023-04-24T04:10:19;97078.22;;;12.55;100.00
14273;BME280;7220;49.450;11.052;2023-04-24T04:14:19;97067.44;;;12.80;100.00
14273;BME280;7220;49.450;11.052;2023-04-24T04:18:20;97061.69;;;12.96;100.00
14273;BME280;7220;49.450;11.052;2023-04-24T04:22:20;97065.31;;;12.94;100.00
14273;BME280;7220;49.450;11.052;2023-04-24T04:26:20;97067.91;;;12.85;100.00
14273;BME280;7220;49.450;11.052;2023-04-24T04:30:21;97063.78;;;12.81;100.00
14273;BME280;7220;49.450;11.052;2023-04-24T04:34:21;97067.34;;;12.70;100.00
14273;BME280;7220;49.450;11.052;2023-04-24T04:38:23;97068.56;;;12.98;100.00
14273;BME280;7220;49.450;11.052;2023-04-24T04:42:24;97071.00;;;13.01;100.00
14273;BME280;7220;49.450;11.052;2023-04-24T04:46:24;97060.16;;;12.82;100.00
14273;BME280;7220;49.450;11.052;2023-04-24T04:50:26;97068.56;;;12.43;100.00
14273;BME280;7220;49.450;11.052;2023-04-24T04:54:27;97078.97;;;12.69;100.00
14273;BME280;7220;49.450;11.052;2023-04-24T04:58:27;97064.81;;;12.57;100.00
14273;BME280;7220;49.450;11.052;2023-04-24T05:02:27;97070.34;;;12.42;100.00
14273;BME280;7220;49.450;11.052;2023-04-24T05:06:28;97082.34;;;12.71;100.00
14273;BME280;7220;49.450;11.052;2023-04-24T05:10:28;97089.59;;;12.80;100.00
14273;BME280;7220;49.450;11.052;2023-04-24T05:14:28;97091.19;;;12.71;100.00
14273;BME280;7220;49.450;11.052;2023-04-24T05:18:29;97093.34;;;12.77;100.00
14273;BME280;7220;49.450;11.052;2023-04-24T05:22:29;97090.66;;;13.00;100.00
14273;BME280;7220;49.450;11.052;2023-04-24T05:26:30;97093.69;;;12.96;100.00
14273;BME280;7220;49.450;11.052;2023-04-24T05:30:30;97103.09;;;13.11;100.00
14273;BME280;7220;49.450;11.052;2023-04-24T05:34:30;97106.09;;;13.29;100.00
14273;BME280;7220;49.450;11.052;2023-04-24T05:38:31;97112.38;;;13.39;99.03
14273;BME280;7220;49.450;11.052;2023-04-24T05:42:31;97112.66;;;13.25;99.73
14273;BME280;7220;49.450;11.052;2023-04-24T05:46:32;97120.28;;;13.30;100.00
14273;BME280;7220;49.450;11.052;2023-04-24T05:50:32;97117.47;;;13.43;100.00
14273;BME280;7220;49.450;11.052;2023-04-24T05:54:33;97125.69;;;13.51;99.92
14273;BME280;7220;49.450;11.052;2023-04-24T05:58:33;97131.84;;;13.19;100.00
14273;BME280;7220;49.450;11.052;2023-04-24T06:02:33;97127.66;;;13.37;100.00
14273;BME280;7220;49.450;11.052;2023-04-24T06:06:35;97129.84;;;13.32;100.00
14273;BME280;7220;49.450;11.052;2023-04-24T06:10:35;97127.97;;;13.55;98.14
14273;BME280;7220;49.450;11.052;2023-04-24T06:14:35;97137.72;;;13.45;99.25
14273;BME280;7220;49.450;11.052;2023-04-24T06:18:36;97127.44;;;13.40;99.17
14273;BME280;7220;49.450;11.052;2023-04-24T06:22:36;97124.66;;;13.63;97.66
14273;BME280;7220;49.450;11.052;2023-04-24T06:26:36;97132.38;;;13.78;96.54
14273;BME280;7220;49.450;11.052;2023-04-24T06:30:37;97149.09;;;13.80;96.55
14273;BME280;7220;49.450;11.052;2023-04-24T06:34:37;97144.66;;;13.69;96.69
14273;BME280;7220;49.450;11.052;2023-04-24T06:38:37;97159.16;;;13.55;97.27
14273;BME280;7220;49.450;11.052;2023-04-24T06:42:38;97167.34;;;13.31;98.44
14273;BME280;7220;49.450;11.052;2023-04-24T06:46:38;97156.84;;;12.95;100.00
14273;BME280;7220;49.450;11.052;2023-04-24T06:50:38;97156.81;;;13.06;100.00
14273;BME280;7220;49.450;11.052;2023-04-24T06:54:41;97161.22;;;12.85;100.00
14273;BME280;7220;49.450;11.052;2023-04-24T06:58:43;97173.59;;;12.97;100.00
14273;BME280;7220;49.450;11.052;2023-04-24T07:02:43;97185.88;;;13.32;98.66
14273;BME280;7220;49.450;11.052;2023-04-24T07:06:45;97197.28;;;13.23;97.11
14273;BME280;7220;49.450;11.052;2023-04-24T07:10:46;97184.19;;;13.31;96.38
14273;BME280;7220;49.450;11.052;2023-04-24T07:14:46;97194.13;;;13.52;93.76
14273;BME280;7220;49.450;11.052;2023-04-24T07:18:46;97195.19;;;13.61;90.31
14273;BME280;7220;49.450;11.052;2023-04-24T07:22:47;97196.53;;;13.32;89.38
14273;BME280;7220;49.450;11.052;2023-04-24T07:26:50;97208.22;;;13.43;83.79
14273;BME280;7220;49.450;11.052;2023-04-24T07:30:51;97211.34;;;13.25;81.81
14273;BME280;7220;49.450;11.052;2023-04-24T07:34:54;97213.78;;;13.17;80.45
14273;BME280;7220;49.450;11.052;2023-04-24T07:38:54;97210.84;;;13.31;78.30
14273;BME280;7220;49.450;11.052;2023-04-24T07:42:55;97224.69;;;13.36;77.00
14273;BME280;7220;49.450;11.052;2023-04-24T07:46:56;97227.97;;;13.29;76.85
14273;BME280;7220;49.450;11.052;2023-04-24T07:50:56;97239.22;;;13.55;76.49
14273;BME280;7220;49.450;11.052;2023-04-24T07:54:57;97237.53;;;13.31;75.84
14273;BME280;7220;49.450;11.052;2023-04-24T07:58:58;97220.44;;;13.89;74.35
14273;BME280;7220;49.450;11.052;2023-04-24T08:02:59;97237.50;;;13.65;73.22
14273;BME280;7220;49.450;11.052;2023-04-24T08:06:59;97233.59;;;14.13;71.67
14273;BME280;7220;49.450;11.052;2023-04-24T08:10:59;97220.50;;;13.78;74.36
14273;BME280;7220;49.450;11.052;2023-04-24T08:15:00;97233.16;;;13.64;73.66
14273;BME280;7220;49.450;11.052;2023-04-24T08:19:00;97243.81;;;13.76;72.13
14273;BME280;7220;49.450;11.052;2023-04-24T08:23:00;97240.53;;;13.72;71.45
14273;BME280;7220;49.450;11.052;2023-04-24T08:27:01;97265.41;;;13.72;70.77
14273;BME280;7220;49.450;11.052;2023-04-24T08:31:01;97269.56;;;13.65;72.53
14273;BME280;7220;49.450;11.052;2023-04-24T08:35:01;97271.47;;;13.75;70.52
14273;BME280;7220;49.450;11.052;2023-04-24T08:39:02;97263.38;;;13.97;69.24
14273;BME280;7220;49.450;11.052;2023-04-24T08:43:03;97265.63;;;13.81;71.25
14273;BME280;7220;49.450;11.052;2023-04-24T08:47:04;97280.06;;;14.22;70.01
14273;BME280;7220;49.450;11.052;2023-04-24T08:51:07;97286.34;;;14.32;68.58
14273;BME280;7220;49.450;11.052;2023-04-24T08:55:08;97273.28;;;14.18;67.91
14273;BME280;7220;49.450;11.052;2023-04-24T08:59:08;97275.19;;;13.95;66.89
14273;BME280;7220;49.450;11.052;2023-04-24T09:03:09;97275.41;;;13.48;69.31
14273;BME280;7220;49.450;11.052;2023-04-24T09:07:10;97270.22;;;13.90;67.59
14273;BME280;7220;49.450;11.052;2023-04-24T09:11:12;97268.72;;;13.97;67.85
14273;BME280;7220;49.450;11.052;2023-04-24T09:15:12;97263.69;;;13.83;68.29
14273;BME280;7220;49.450;11.052;2023-04-24T09:19:13;97256.34;;;13.96;67.79
14273;BME280;7220;49.450;11.052;2023-04-24T09:23:17;97252.16;;;14.15;67.94
14273;BME280;7220;49.450;11.052;2023-04-24T09:27:17;97233.38;;;14.26;65.50
14273;BME280;7220;49.450;11.052;2023-04-24T09:31:19;97248.41;;;14.39;66.20
14273;BME280;7220;49.450;11.052;2023-04-24T09:35:24;97236.91;;;14.27;65.10
14273;BME280;7220;49.450;11.052;2023-04-24T09:39:25;97245.88;;;14.37;65.69
14273;BME280;7220;49.450;11.052;2023-04-24T09:43:26;97252.31;;;14.77;64.52
14273;BME280;7220;49.450;11.052;2023-04-24T09:47:27;97255.88;;;14.45;64.85
14273;BME280;7220;49.450;11.052;2023-04-24T09:51:34;97253.03;;;14.36;57.45
14273;BME280;7220;49.450;11.052;2023-04-24T09:55:45;97262.97;;;14.34;56.93
14273;BME280;7220;49.450;11.052;2023-04-24T09:59:46;97273.22;;;14.29;55.99
14273;BME280;7220;49.450;11.052;2023-04-24T10:03:49;97252.88;;;14.59;55.56
14273;BME280;7220;49.450;11.052;2023-04-24T10:07:49;97262.84;;;14.99;53.21
14273;BME280;7220;49.450;11.052;2023-04-24T10:11:52;97277.84;;;15.12;51.47
14273;BME280;7220;49.450;11.052;2023-04-24T10:15:53;97274.34;;;14.90;48.71
14273;BME280;7220;49.450;11.052;2023-04-24T10:19:56;97251.50;;;15.07;45.73
14273;BME280;7220;49.450;11.052;2023-04-24T10:23:58;97251.22;;;15.41;45.97
14273;BME280;7220;49.450;11.052;2023-04-24T10:28:02;97257.28;;;15.12;44.50
14273;BME280;7220;49.450;11.052;2023-04-24T10:32:02;97271.69;;;15.62;43.56
14273;BME280;7220;49.450;11.052;2023-04-24T10:36:04;97269.88;;;15.72;43.65
14273;BME280;7220;49.450;11.052;2023-04-24T10:40:05;97272.00;;;15.78;40.79
14273;BME280;7220;49.450;11.052;2023-04-24T10:44:09;97278.69;;;15.84;46.33
14273;BME280;7220;49.450;11.052;2023-04-24T10:48:09;97286.94;;;15.61;49.96
14273;BME280;7220;49.450;11.052;2023-04-24T10:52:16;97308.59;;;15.58;49.82
14273;BME280;7220;49.450;11.052;2023-04-24T10:56:17;97328.38;;;15.05;52.07
14273;BME280;7220;49.450;11.052;2023-04-24T11:00:20;97324.59;;;14.65;52.44
14273;BME280;7220;49.450;11.052;2023-04-24T11:04:31;97337.91;;;14.12;53.46
14273;BME280;7220;49.450;11.052;2023-04-24T11:08:39;97326.09;;;14.14;52.83
14273;BME280;7220;49.450;11.052;2023-04-24T11:12:43;97329.94;;;14.00;51.23
14273;BME280;7220;49.450;11.052;2023-04-24T11:16:45;97340.97;;;14.40;50.71
14273;BME280;7220;49.450;11.052;2023-04-24T11:20:54;97341.34;;;15.10;48.79
14273;BME280;7220;49.450;11.052;2023-04-24T11:24:54;97324.59;;;15.39;46.43
14273;BME280;7220;49.450;11.052;2023-04-24T11:29:06;97327.00;;;15.42;46.99
14273;BME280;7220;49.450;11.052;2023-04-24T11:33:07;97314.31;;;17.60;42.07
14273;BME280;7220;49.450;11.052;2023-04-24T11:37:07;97315.94;;;18.44;40.03
14273;BME280;7220;49.450;11.052;2023-04-24T11:41:08;97334.88;;;16.54;42.96
14273;BME280;7220;49.450;11.052;2023-04-24T11:45:13;97330.63;;;16.22;45.32
14273;BME280;7220;49.450;11.052;2023-04-24T11:49:13;97355.06;;;15.78;44.78
14273;BME280;7220;49.450;11.052;2023-04-24T11:53:13;97351.00;;;15.22;46.11
14273;BME280;7220;49.450;11.052;2023-04-24T11:57:14;97366.59;;;14.75;47.21
14273;BME280;7220;49.450;11.052;2023-04-24T12:01:14;97351.06;;;14.69;46.47
14273;BME280;7220;49.450;11.052;2023-04-24T12:05:27;97372.47;;;14.69;46.12
14273;BME280;7220;49.450;11.052;2023-04-24T12:09:28;97364.34;;;14.59;46.15
14273;BME280;7220;49.450;11.052;2023-04-24T12:13:28;97367.59;;;14.62;46.00
14273;BME280;7220;49.450;11.052;2023-04-24T12:17:31;97358.66;;;14.85;46.22
14273;BME280;7220;49.450;11.052;2023-04-24T12:21:31;97373.25;;;15.23;46.55
14273;BME280;7220;49.450;11.052;2023-04-24T12:25:32;97364.34;;;16.25;46.19
14273;BME280;7220;49.450;11.052;2023-04-24T12:29:33;97360.28;;;17.09;44.03
14273;BME280;7220;49.450;11.052;2023-04-24T12:33:35;97359.44;;;16.40;44.09
14273;BME280;7220;49.450;11.052;2023-04-24T12:37:35;97378.25;;;15.99;44.74
14273;BME280;7220;49.450;11.052;2023-04-24T12:41:36;97379.69;;;16.03;44.74
14273;BME280;7220;49.450;11.052;2023-04-24T12:45:36;97376.72;;;15.66;45.33
14273;BME280;7220;49.450;11.052;2023-04-24T12:49:37;97390.09;;;15.87;44.38
14273;BME280;7220;49.450;11.052;2023-04-24T12:53:37;97392.78;;;15.97;44.75
14273;BME280;7220;49.450;11.052;2023-04-24T12:57:38;97388.78;;;15.50;45.29
14273;BME280;7220;49.450;11.052;2023-04-24T13:01:40;97387.28;;;15.15;45.16
14273;BME280;7220;49.450;11.052;2023-04-24T13:05:42;97390.72;;;15.48;44.55
14273;BME280;7220;49.450;11.052;2023-04-24T13:09:43;97375.16;;;16.04;45.16
14273;BME280;7220;49.450;11.052;2023-04-24T13:13:44;97377.75;;;16.15;44.05
14273;BME280;7220;49.450;11.052;2023-04-24T13:17:45;97373.78;;;15.38;45.11
14273;BME280;7220;49.450;11.052;2023-04-24T13:21:45;97387.38;;;15.04;46.76
14273;BME280;7220;49.450;11.052;2023-04-24T13:25:45;97390.03;;;14.50;48.63
14273;BME280;7220;49.450;11.052;2023-04-24T13:29:47;97386.34;;;14.30;52.03
14273;BME280;7220;49.450;11.052;2023-04-24T13:33:47;97401.28;;;14.21;51.25
14273;BME280;7220;49.450;11.052;2023-04-24T13:37:48;97409.56;;;14.07;51.36
14273;BME280;7220;49.450;11.052;2023-04-24T13:41:48;97408.41;;;14.43;49.87
14273;BME280;7220;49.450;11.052;2023-04-24T13:45:49;97398.75;;;14.19;50.66
14273;BME280;7220;49.450;11.052;2023-04-24T13:49:49;97403.66;;;13.80;51.79
14273;BME280;7220;49.450;11.052;2023-04-24T13:53:50;97400.38;;;13.77;53.17
14273;BME280;7220;49.450;11.052;2023-04-24T13:57:50;97402.78;;;13.80;52.08
14273;BME280;7220;49.450;11.052;2023-04-24T14:01:52;97399.63;;;13.97;52.03
14273;BME280;7220;49.450;11.052;2023-04-24T14:05:52;97414.03;;;14.29;51.78
14273;BME280;7220;49.450;11.052;2023-04-24T14:09:52;97402.22;;;15.39;48.56
14273;BME280;7220;49.450;11.052;2023-04-24T14:13:54;97391.47;;;16.42;45.02
14273;BME280;7220;49.450;11.052;2023-04-24T14:17:56;97380.75;;;16.22;46.22
14273;BME280;7220;49.450;11.052;2023-04-24T14:21:58;97366.34;;;16.52;45.77
14273;BME280;7220;49.450;11.052;2023-04-24T14:25:59;97376.81;;;16.55;45.07
14273;BME280;7220;49.450;11.052;2023-04-24T14:29:59;97376.63;;;16.28;45.65
14273;BME280;7220;49.450;11.052;2023-04-24T14:34:00;97374.94;;;16.27;45.26
14273;BME280;7220;49.450;11.052;2023-04-24T14:38:00;97378.00;;;16.12;46.55
14273;BME280;7220;49.450;11.052;2023-04-24T14:42:00;97394.47;;;15.88;47.24
14273;BME280;7220;49.450;11.052;2023-04-24T14:46:04;97406.97;;;16.18;46.77
14273;BME280;7220;49.450;11.052;2023-04-24T14:50:05;97410.56;;;15.67;45.80
14273;BME280;7220;49.450;11.052;2023-04-24T14:54:06;97422.16;;;15.77;47.70
14273;BME280;7220;49.450;11.052;2023-04-24T14:58:06;97410.69;;;15.34;49.65
14273;BME280;7220;49.450;11.052;2023-04-24T15:02:07;97394.16;;;15.08;48.84
14273;BME280;7220;49.450;11.052;2023-04-24T15:06:07;97401.06;;;15.32;46.76
14273;BME280;7220;49.450;11.052;2023-04-24T15:10:08;97409.22;;;15.30;46.79
14273;BME280;7220;49.450;11.052;2023-04-24T15:14:08;97404.66;;;15.42;47.96
14273;BME280;7220;49.450;11.052;2023-04-24T15:18:09;97421.34;;;15.55;47.24
14273;BME280;7220;49.450;11.052;2023-04-24T15:22:11;97412.75;;;15.30;47.75
14273;BME280;7220;49.450;11.052;2023-04-24T15:26:11;97416.28;;;15.31;48.35
14273;BME280;7220;49.450;11.052;2023-04-24T15:30:13;97410.88;;;15.21;48.67
14273;BME280;7220;49.450;11.052;2023-04-24T15:34:13;97413.22;;;15.67;49.13
14273;BME280;7220;49.450;11.052;2023-04-24T15:38:14;97409.19;;;15.20;49.27
14273;BME280;7220;49.450;11.052;2023-04-24T15:42:14;97399.69;;;15.16;48.72
14273;BME280;7220;49.450;11.052;2023-04-24T15:46:15;97393.69;;;15.24;48.68
14273;BME280;7220;49.450;11.052;2023-04-24T15:50:15;97407.09;;;15.03;48.58
14273;BME280;7220;49.450;11.052;2023-04-24T15:54:16;97412.09;;;14.96;46.33
14273;BME280;7220;49.450;11.052;2023-04-24T15:58:16;97406.66;;;14.54;47.49
14273;BME280;7220;49.450;11.052;2023-04-24T16:02:17;97412.41;;;14.38;47.69
14273;BME280;7220;49.450;11.052;2023-04-24T16:06:19;97424.13;;;14.58;47.69
14273;BME280;7220;49.450;11.052;2023-04-24T16:10:20;97427.66;;;14.70;46.57
14273;BME280;7220;49.450;11.052;2023-04-24T16:14:20;97439.22;;;14.47;47.04
14273;BME280;7220;49.450;11.052;2023-04-24T16:18:20;97425.84;;;14.59;47.18
14273;BME280;7220;49.450;11.052;2023-04-24T16:22:21;97429.84;;;14.64;47.49
14273;BME280;7220;49.450;11.052;2023-04-24T16:26:21;97431.06;;;14.60;47.55
14273;BME280;7220;49.450;11.052;2023-04-24T16:30:22;97437.75;;;13.88;49.39
14273;BME280;7220;49.450;11.052;2023-04-24T16:34:22;97441.91;;;13.69;50.54
14273;BME280;7220;49.450;11.052;2023-04-24T16:38:23;97433.56;;;13.27;51.96
14273;BME280;7220;49.450;11.052;2023-04-24T16:42:24;97441.13;;;13.56;52.49
14273;BME280;7220;49.450;11.052;2023-04-24T16:46:25;97429.50;;;14.46;51.19
14273;BME280;7220;49.450;11.052;2023-04-24T16:50:25;97449.22;;;15.10;48.30
14273;BME280;7220;49.450;11.052;2023-04-24T16:54:25;97441.28;;;15.41;47.70
14273;BME280;7220;49.450;11.052;2023-04-24T16:58:26;97438.41;;;15.12;48.32
14273;BME280;7220;49.450;11.052;2023-04-24T17:02:26;97445.28;;;14.61;49.31
14273;BME280;7220;49.450;11.052;2023-04-24T17:06:26;97448.69;;;14.08;50.30
14273;BME280;7220;49.450;11.052;2023-04-24T17:10:27;97449.16;;;13.79;50.62
14273;BME280;7220;49.450;11.052;2023-04-24T17:14:28;97447.47;;;13.66;51.32
14273;BME280;7220;49.450;11.052;2023-04-24T17:18:28;97454.00;;;13.62;51.43
14273;BME280;7220;49.450;11.052;2023-04-24T17:22:29;97458.59;;;13.49;52.23
14273;BME280;7220;49.450;11.052;2023-04-24T17:26:30;97466.34;;;13.40;53.03
14273;BME280;7220;49.450;11.052;2023-04-24T17:30:31;97459.75;;;13.22;53.15
14273;BME280;7220;49.450;11.052;2023-04-24T17:34:31;97475.75;;;13.22;53.57
14273;BME280;7220;49.450;11.052;2023-04-24T17:38:32;97503.75;;;13.28;53.73
14273;BME280;7220;49.450;11.052;2023-04-24T17:42:32;97476.09;;;13.64;52.27
14273;BME280;7220;49.450;11.052;2023-04-24T17:46:34;97472.69;;;13.51;51.52
14273;BME280;7220;49.450;11.052;2023-04-24T17:50:34;97497.53;;;13.16;52.48
